sensor_id;sensor_type;location;lat;lon;timestamp;P1;durP1;ratioP1;P2;durP2;ratioP2
76566;SDS011;65428;53.194;6.132;2023-05-23T00:00:36;26.77;;;16.90;;
76566;SDS011;65428;53.194;6.132;2023-05-23T00:03:02;28.13;;;17.55;;
76566;SDS011;65428;53.194;6.132;2023-05-23T00:05:28;27.60;;;17.97;;
76566;SDS011;65428;53.194;6.132;2023-05-23T00:07:54;27.70;;;18.13;;
76566;SDS011;65428;53.194;6.132;2023-05-23T00:10:20;29.30;;;18.98;;
76566;SDS011;65428;53.194;6.132;2023-05-23T00:12:46;31.50;;;19.58;;
76566;SDS011;65428;53.194;6.132;2023-05-23T00:15:12;33.63;;;19.00;;
76566;SDS011;65428;53.194;6.132;2023-05-23T00:17:38;32.80;;;19.38;;
76566;SDS011;65428;53.194;6.132;2023-05-23T00:20:06;32.27;;;17.93;;
76566;SDS011;65428;53.194;6.132;2023-05-23T00:22:35;31.00;;;17.60;;
76566;SDS011;65428;53.194;6.132;2023-05-23T00:25:03;26.90;;;17.42;;
76566;SDS011;65428;53.194;6.132;2023-05-23T00:27:30;29.95;;;16.48;;
76566;SDS011;65428;53.194;6.132;2023-05-23T00:29:55;27.10;;;15.30;;
76566;SDS011;65428;53.194;6.132;2023-05-23T00:32:21;29.45;;;15.35;;
76566;SDS011;65428;53.194;6.132;2023-05-23T00:34:47;26.03;;;14.60;;
76566;SDS011;65428;53.194;6.132;2023-05-23T00:37:12;28.90;;;14.63;;
76566;SDS011;65428;53.194;6.132;2023-05-23T00:39:39;26.77;;;14.30;;
76566;SDS011;65428;53.194;6.132;2023-05-23T00:42:05;27.02;;;14.45;;
76566;SDS011;65428;53.194;6.132;2023-05-23T00:44:31;27.93;;;14.50;;
76566;SDS011;65428;53.194;6.132;2023-05-23T00:46:57;26.60;;;14.05;;
76566;SDS011;65428;53.194;6.132;2023-05-23T00:49:23;30.13;;;14.45;;
76566;SDS011;65428;53.194;6.132;2023-05-23T00:51:51;30.80;;;14.60;;
76566;SDS011;65428;53.194;6.132;2023-05-23T00:54:17;26.87;;;14.30;;
76566;SDS011;65428;53.194;6.132;2023-05-23T00:56:48;31.33;;;14.73;;
76566;SDS011;65428;53.194;6.132;2023-05-23T00:59:13;29.97;;;15.57;;
76566;SDS011;65428;53.194;6.132;2023-05-23T01:01:40;35.25;;;15.55;;
76566;SDS011;65428;53.194;6.132;2023-05-23T01:04:10;30.80;;;15.63;;
76566;SDS011;65428;53.194;6.132;2023-05-23T01:06:37;29.17;;;15.50;;
76566;SDS011;65428;53.194;6.132;2023-05-23T01:09:03;27.73;;;15.27;;
76566;SDS011;65428;53.194;6.132;2023-05-23T01:11:32;33.20;;;16.40;;
76566;SDS011;65428;53.194;6.132;2023-05-23T01:14:06;32.80;;;16.53;;
76566;SDS011;65428;53.194;6.132;2023-05-23T01:16:46;34.42;;;16.45;;
76566;SDS011;65428;53.194;6.132;2023-05-23T01:25:53;32.67;;;15.95;;
76566;SDS011;65428;53.194;6.132;2023-05-23T01:28:44;29.60;;;15.70;;
76566;SDS011;65428;53.194;6.132;2023-05-23T01:31:11;34.67;;;16.33;;
76566;SDS011;65428;53.194;6.132;2023-05-23T01:33:38;32.90;;;16.38;;
76566;SDS011;65428;53.194;6.132;2023-05-23T01:36:05;31.08;;;15.10;;
76566;SDS011;65428;53.194;6.132;2023-05-23T01:38:31;29.05;;;15.27;;
76566;SDS011;65428;53.194;6.132;2023-05-23T01:40:57;28.80;;;13.98;;
76566;SDS011;65428;53.194;6.132;2023-05-23T01:43:22;31.57;;;14.13;;
76566;SDS011;65428;53.194;6.132;2023-05-23T01:45:50;26.67;;;13.52;;
76566;SDS011;65428;53.194;6.132;2023-05-23T01:48:17;31.03;;;13.43;;
76566;SDS011;65428;53.194;6.132;2023-05-23T01:50:44;26.48;;;12.30;;
76566;SDS011;65428;53.194;6.132;2023-05-23T01:53:11;27.20;;;13.25;;
76566;SDS011;65428;53.194;6.132;2023-05-23T01:55:40;26.70;;;11.60;;
76566;SDS011;65428;53.194;6.132;2023-05-23T01:58:06;23.80;;;11.48;;
76566;SDS011;65428;53.194;6.132;2023-05-23T02:00:33;29.42;;;11.35;;
76566;SDS011;65428;53.194;6.132;2023-05-23T02:02:58;26.98;;;10.85;;
76566;SDS011;65428;53.194;6.132;2023-05-23T02:05:24;25.85;;;9.85;;
76566;SDS011;65428;53.194;6.132;2023-05-23T02:07:51;23.47;;;9.90;;
76566;SDS011;65428;53.194;6.132;2023-05-23T02:10:17;24.27;;;9.70;;
76566;SDS011;65428;53.194;6.132;2023-05-23T02:12:43;21.90;;;9.55;;
76566;SDS011;65428;53.194;6.132;2023-05-23T02:15:09;20.67;;;8.90;;
76566;SDS011;65428;53.194;6.132;2023-05-23T02:17:35;24.00;;;9.40;;
76566;SDS011;65428;53.194;6.132;2023-05-23T02:20:02;23.83;;;9.18;;
76566;SDS011;65428;53.194;6.132;2023-05-23T02:22:29;23.45;;;9.50;;
76566;SDS011;65428;53.194;6.132;2023-05-23T02:24:54;24.05;;;9.25;;
76566;SDS011;65428;53.194;6.132;2023-05-23T02:27:20;22.07;;;8.60;;
76566;SDS011;65428;53.194;6.132;2023-05-23T02:29:46;23.98;;;9.20;;
76566;SDS011;65428;53.194;6.132;2023-05-23T02:32:11;23.97;;;9.77;;
76566;SDS011;65428;53.194;6.132;2023-05-23T02:34:37;24.95;;;10.00;;
76566;SDS011;65428;53.194;6.132;2023-05-23T02:37:03;23.38;;;10.23;;
76566;SDS011;65428;53.194;6.132;2023-05-23T02:39:28;23.13;;;9.47;;
76566;SDS011;65428;53.194;6.132;2023-05-23T02:41:54;21.03;;;9.17;;
76566;SDS011;65428;53.194;6.132;2023-05-23T02:44:19;21.87;;;9.17;;
76566;SDS011;65428;53.194;6.132;2023-05-23T02:46:45;20.87;;;8.80;;
76566;SDS011;65428;53.194;6.132;2023-05-23T02:49:11;23.40;;;9.45;;
76566;SDS011;65428;53.194;6.132;2023-05-23T02:51:36;25.33;;;9.27;;
76566;SDS011;65428;53.194;6.132;2023-05-23T02:54:02;25.50;;;9.93;;
76566;SDS011;65428;53.194;6.132;2023-05-23T02:56:28;21.20;;;9.30;;
76566;SDS011;65428;53.194;6.132;2023-05-23T02:58:53;22.65;;;9.07;;
76566;SDS011;65428;53.194;6.132;2023-05-23T03:01:19;24.48;;;8.60;;
76566;SDS011;65428;53.194;6.132;2023-05-23T03:03:45;18.37;;;8.00;;
76566;SDS011;65428;53.194;6.132;2023-05-23T03:06:10;20.70;;;7.60;;
76566;SDS011;65428;53.194;6.132;2023-05-23T03:08:39;18.50;;;7.63;;
76566;SDS011;65428;53.194;6.132;2023-05-23T03:11:05;16.17;;;6.97;;
76566;SDS011;65428;53.194;6.132;2023-05-23T03:13:31;18.43;;;6.90;;
76566;SDS011;65428;53.194;6.132;2023-05-23T03:15:56;20.92;;;6.70;;
76566;SDS011;65428;53.194;6.132;2023-05-23T03:18:22;18.67;;;6.37;;
76566;SDS011;65428;53.194;6.132;2023-05-23T03:20:47;16.02;;;5.35;;
76566;SDS011;65428;53.194;6.132;2023-05-23T03:23:13;16.07;;;5.33;;
76566;SDS011;65428;53.194;6.132;2023-05-23T03:25:39;15.57;;;5.30;;
76566;SDS011;65428;53.194;6.132;2023-05-23T03:28:04;19.92;;;5.32;;
76566;SDS011;65428;53.194;6.132;2023-05-23T03:30:30;17.33;;;5.10;;
76566;SDS011;65428;53.194;6.132;2023-05-23T03:32:55;18.88;;;5.68;;
76566;SDS011;65428;53.194;6.132;2023-05-23T03:35:21;15.97;;;5.90;;
76566;SDS011;65428;53.194;6.132;2023-05-23T03:37:47;18.85;;;7.18;;
76566;SDS011;65428;53.194;6.132;2023-05-23T03:40:12;17.87;;;8.03;;
76566;SDS011;65428;53.194;6.132;2023-05-23T03:42:38;18.35;;;8.35;;
76566;SDS011;65428;53.194;6.132;2023-05-23T03:45:04;18.60;;;8.67;;
76566;SDS011;65428;53.194;6.132;2023-05-23T03:47:30;18.90;;;8.90;;
76566;SDS011;65428;53.194;6.132;2023-05-23T03:49:55;18.07;;;8.70;;
76566;SDS011;65428;53.194;6.132;2023-05-23T03:52:21;20.42;;;8.40;;
76566;SDS011;65428;53.194;6.132;2023-05-23T03:54:47;16.27;;;7.55;;
76566;SDS011;65428;53.194;6.132;2023-05-23T03:57:13;16.90;;;6.63;;
76566;SDS011;65428;53.194;6.132;2023-05-23T03:59:38;16.48;;;6.60;;
76566;SDS011;65428;53.194;6.132;2023-05-23T04:02:04;17.88;;;6.72;;
76566;SDS011;65428;53.194;6.132;2023-05-23T04:04:30;19.05;;;6.65;;
76566;SDS011;65428;53.194;6.132;2023-05-23T04:06:56;17.90;;;6.00;;
76566;SDS011;65428;53.194;6.132;2023-05-23T04:09:23;16.00;;;5.95;;
76566;SDS011;65428;53.194;6.132;2023-05-23T04:11:48;16.85;;;5.63;;
76566;SDS011;65428;53.194;6.132;2023-05-23T04:14:14;16.13;;;5.90;;
76566;SDS011;65428;53.194;6.132;2023-05-23T04:16:41;16.70;;;5.93;;
76566;SDS011;65428;53.194;6.132;2023-05-23T04:19:08;17.77;;;6.40;;
76566;SDS011;65428;53.194;6.132;2023-05-23T04:21:34;17.07;;;5.70;;
76566;SDS011;65428;53.194;6.132;2023-05-23T04:24:00;17.35;;;6.38;;
76566;SDS011;65428;53.194;6.132;2023-05-23T04:26:27;17.50;;;6.13;;
76566;SDS011;65428;53.194;6.132;2023-05-23T04:28:53;16.13;;;6.33;;
76566;SDS011;65428;53.194;6.132;2023-05-23T04:31:19;13.80;;;5.60;;
76566;SDS011;65428;53.194;6.132;2023-05-23T04:33:46;13.93;;;5.80;;
76566;SDS011;65428;53.194;6.132;2023-05-23T04:36:15;11.25;;;5.60;;
76566;SDS011;65428;53.194;6.132;2023-05-23T04:38:42;12.88;;;5.68;;
76566;SDS011;65428;53.194;6.132;2023-05-23T04:41:07;16.47;;;6.23;;
76566;SDS011;65428;53.194;6.132;2023-05-23T04:43:36;16.33;;;6.50;;
76566;SDS011;65428;53.194;6.132;2023-05-23T04:46:06;14.98;;;6.35;;
76566;SDS011;65428;53.194;6.132;2023-05-23T04:48:35;16.65;;;6.18;;
76566;SDS011;65428;53.194;6.132;2023-05-23T04:51:02;17.00;;;6.40;;
76566;SDS011;65428;53.194;6.132;2023-05-23T04:53:32;17.35;;;6.70;;
76566;SDS011;65428;53.194;6.132;2023-05-23T04:55:58;14.85;;;5.95;;
76566;SDS011;65428;53.194;6.132;2023-05-23T04:58:24;14.95;;;6.05;;
76566;SDS011;65428;53.194;6.132;2023-05-23T05:00:50;16.27;;;6.13;;
76566;SDS011;65428;53.194;6.132;2023-05-23T05:03:15;17.38;;;6.78;;
76566;SDS011;65428;53.194;6.132;2023-05-23T05:05:41;14.07;;;6.43;;
76566;SDS011;65428;53.194;6.132;2023-05-23T05:08:07;16.17;;;6.37;;
76566;SDS011;65428;53.194;6.132;2023-05-23T05:10:32;15.40;;;6.63;;
76566;SDS011;65428;53.194;6.132;2023-05-23T05:12:58;15.53;;;6.43;;
76566;SDS011;65428;53.194;6.132;2023-05-23T05:15:23;15.38;;;6.38;;
76566;SDS011;65428;53.194;6.132;2023-05-23T05:17:49;18.05;;;6.03;;
76566;SDS011;65428;53.194;6.132;2023-05-23T05:20:15;15.13;;;5.30;;
76566;SDS011;65428;53.194;6.132;2023-05-23T05:22:41;11.57;;;5.00;;
76566;SDS011;65428;53.194;6.132;2023-05-23T05:25:07;18.10;;;5.95;;
76566;SDS011;65428;53.194;6.132;2023-05-23T05:27:35;16.40;;;5.70;;
76566;SDS011;65428;53.194;6.132;2023-05-23T05:30:07;13.75;;;5.53;;
76566;SDS011;65428;53.194;6.132;2023-05-23T05:32:49;14.07;;;5.22;;
76566;SDS011;65428;53.194;6.132;2023-05-23T05:35:15;14.02;;;5.03;;
76566;SDS011;65428;53.194;6.132;2023-05-23T05:37:41;15.77;;;4.95;;
76566;SDS011;65428;53.194;6.132;2023-05-23T05:40:07;12.90;;;4.68;;
76566;SDS011;65428;53.194;6.132;2023-05-23T05:42:33;14.35;;;4.63;;
76566;SDS011;65428;53.194;6.132;2023-05-23T05:44:59;16.40;;;4.20;;
76566;SDS011;65428;53.194;6.132;2023-05-23T05:47:25;12.65;;;4.10;;
76566;SDS011;65428;53.194;6.132;2023-05-23T05:49:51;13.37;;;3.33;;
76566;SDS011;65428;53.194;6.132;2023-05-23T05:52:17;12.20;;;3.42;;
76566;SDS011;65428;53.194;6.132;2023-05-23T05:54:42;13.50;;;3.40;;
76566;SDS011;65428;53.194;6.132;2023-05-23T05:57:08;12.67;;;3.20;;
76566;SDS011;65428;53.194;6.132;2023-05-23T05:59:34;14.48;;;3.80;;
76566;SDS011;65428;53.194;6.132;2023-05-23T06:01:59;13.47;;;3.37;;
76566;SDS011;65428;53.194;6.132;2023-05-23T06:04:25;13.13;;;3.53;;
76566;SDS011;65428;53.194;6.132;2023-05-23T06:06:51;17.38;;;3.83;;
76566;SDS011;65428;53.194;6.132;2023-05-23T06:09:16;13.90;;;3.50;;
76566;SDS011;65428;53.194;6.132;2023-05-23T06:11:42;14.93;;;3.65;;
76566;SDS011;65428;53.194;6.132;2023-05-23T06:14:08;13.98;;;3.40;;
76566;SDS011;65428;53.194;6.132;2023-05-23T06:16:33;15.57;;;3.17;;
76566;SDS011;65428;53.194;6.132;2023-05-23T06:18:59;13.77;;;2.92;;
76566;SDS011;65428;53.194;6.132;2023-05-23T06:21:25;14.73;;;3.07;;
76566;SDS011;65428;53.194;6.132;2023-05-23T06:23:51;14.48;;;3.45;;
76566;SDS011;65428;53.194;6.132;2023-05-23T06:26:17;15.07;;;3.20;;
76566;SDS011;65428;53.194;6.132;2023-05-23T06:28:42;16.73;;;3.67;;
76566;SDS011;65428;53.194;6.132;2023-05-23T06:31:08;18.02;;;3.72;;
76566;SDS011;65428;53.194;6.132;2023-05-23T06:33:34;19.63;;;3.73;;
76566;SDS011;65428;53.194;6.132;2023-05-23T06:36:00;15.48;;;3.55;;
76566;SDS011;65428;53.194;6.132;2023-05-23T06:38:26;15.80;;;3.75;;
76566;SDS011;65428;53.194;6.132;2023-05-23T06:40:53;18.50;;;3.75;;
76566;SDS011;65428;53.194;6.132;2023-05-23T06:43:19;18.33;;;3.50;;
76566;SDS011;65428;53.194;6.132;2023-05-23T06:45:45;15.55;;;4.05;;
76566;SDS011;65428;53.194;6.132;2023-05-23T06:48:14;15.93;;;3.20;;
76566;SDS011;65428;53.194;6.132;2023-05-23T06:50:39;15.10;;;3.43;;
76566;SDS011;65428;53.194;6.132;2023-05-23T06:53:05;15.70;;;2.75;;
76566;SDS011;65428;53.194;6.132;2023-05-23T06:55:31;17.13;;;3.10;;
76566;SDS011;65428;53.194;6.132;2023-05-23T06:57:58;18.00;;;3.30;;
76566;SDS011;65428;53.194;6.132;2023-05-23T07:00:24;19.38;;;3.50;;
76566;SDS011;65428;53.194;6.132;2023-05-23T07:02:50;20.17;;;3.80;;
76566;SDS011;65428;53.194;6.132;2023-05-23T07:05:16;18.03;;;2.77;;
76566;SDS011;65428;53.194;6.132;2023-05-23T07:07:42;14.03;;;2.40;;
76566;SDS011;65428;53.194;6.132;2023-05-23T07:10:08;16.90;;;3.00;;
76566;SDS011;65428;53.194;6.132;2023-05-23T07:12:34;15.27;;;3.03;;
76566;SDS011;65428;53.194;6.132;2023-05-23T07:15:00;16.03;;;2.97;;
76566;SDS011;65428;53.194;6.132;2023-05-23T07:17:26;16.42;;;3.03;;
76566;SDS011;65428;53.194;6.132;2023-05-23T07:19:54;16.10;;;3.03;;
76566;SDS011;65428;53.194;6.132;2023-05-23T07:22:19;20.80;;;3.40;;
76566;SDS011;65428;53.194;6.132;2023-05-23T07:24:45;20.33;;;3.77;;
76566;SDS011;65428;53.194;6.132;2023-05-23T07:27:11;20.02;;;3.28;;
76566;SDS011;65428;53.194;6.132;2023-05-23T07:29:37;21.08;;;3.25;;
76566;SDS011;65428;53.194;6.132;2023-05-23T07:32:02;16.57;;;3.20;;
76566;SDS011;65428;53.194;6.132;2023-05-23T07:34:28;15.45;;;2.72;;
76566;SDS011;65428;53.194;6.132;2023-05-23T07:36:54;17.05;;;3.00;;
76566;SDS011;65428;53.194;6.132;2023-05-23T07:39:20;14.70;;;3.50;;
76566;SDS011;65428;53.194;6.132;2023-05-23T07:41:48;14.53;;;3.03;;
76566;SDS011;65428;53.194;6.132;2023-05-23T07:44:14;18.77;;;3.10;;
76566;SDS011;65428;53.194;6.132;2023-05-23T07:46:40;15.77;;;3.00;;
76566;SDS011;65428;53.194;6.132;2023-05-23T07:49:06;17.30;;;3.23;;
76566;SDS011;65428;53.194;6.132;2023-05-23T07:51:32;14.38;;;3.08;;
76566;SDS011;65428;53.194;6.132;2023-05-23T07:53:57;19.35;;;3.47;;
76566;SDS011;65428;53.194;6.132;2023-05-23T07:56:23;14.60;;;3.50;;
76566;SDS011;65428;53.194;6.132;2023-05-23T07:58:49;14.40;;;3.22;;
76566;SDS011;65428;53.194;6.132;2023-05-23T08:01:14;16.23;;;3.10;;
76566;SDS011;65428;53.194;6.132;2023-05-23T08:03:40;14.40;;;3.08;;
76566;SDS011;65428;53.194;6.132;2023-05-23T08:06:06;15.80;;;2.95;;
76566;SDS011;65428;53.194;6.132;2023-05-23T08:08:32;14.57;;;3.05;;
76566;SDS011;65428;53.194;6.132;2023-05-23T08:10:58;12.43;;;2.90;;
76566;SDS011;65428;53.194;6.132;2023-05-23T08:13:24;15.73;;;2.70;;
76566;SDS011;65428;53.194;6.132;2023-05-23T08:15:50;16.40;;;3.55;;
76566;SDS011;65428;53.194;6.132;2023-05-23T08:18:16;14.63;;;3.43;;
76566;SDS011;65428;53.194;6.132;2023-05-23T08:20:42;13.77;;;2.83;;
76566;SDS011;65428;53.194;6.132;2023-05-23T08:23:07;14.27;;;2.80;;
76566;SDS011;65428;53.194;6.132;2023-05-23T08:25:33;17.30;;;3.17;;
76566;SDS011;65428;53.194;6.132;2023-05-23T08:27:59;14.40;;;2.90;;
76566;SDS011;65428;53.194;6.132;2023-05-23T08:30:25;16.27;;;2.95;;
76566;SDS011;65428;53.194;6.132;2023-05-23T08:32:52;14.95;;;2.88;;
76566;SDS011;65428;53.194;6.132;2023-05-23T08:35:19;15.25;;;3.20;;
76566;SDS011;65428;53.194;6.132;2023-05-23T08:37:45;15.90;;;3.40;;
76566;SDS011;65428;53.194;6.132;2023-05-23T08:40:18;17.73;;;3.53;;
76566;SDS011;65428;53.194;6.132;2023-05-23T08:42:46;14.88;;;3.10;;
76566;SDS011;65428;53.194;6.132;2023-05-23T08:45:12;14.73;;;2.85;;
76566;SDS011;65428;53.194;6.132;2023-05-23T08:47:40;15.00;;;3.10;;
76566;SDS011;65428;53.194;6.132;2023-05-23T08:50:12;14.50;;;2.53;;
76566;SDS011;65428;53.194;6.132;2023-05-23T08:52:55;13.27;;;2.63;;
76566;SDS011;65428;53.194;6.132;2023-05-23T08:55:24;12.55;;;2.30;;
76566;SDS011;65428;53.194;6.132;2023-05-23T08:57:54;13.07;;;2.67;;
76566;SDS011;65428;53.194;6.132;2023-05-23T09:00:21;16.33;;;2.83;;
76566;SDS011;65428;53.194;6.132;2023-05-23T09:02:49;16.98;;;2.85;;
76566;SDS011;65428;53.194;6.132;2023-05-23T09:05:15;17.73;;;3.42;;
76566;SDS011;65428;53.194;6.132;2023-05-23T09:07:42;17.20;;;3.17;;
76566;SDS011;65428;53.194;6.132;2023-05-23T09:10:10;16.77;;;3.30;;
76566;SDS011;65428;53.194;6.132;2023-05-23T09:12:41;15.23;;;2.97;;
76566;SDS011;65428;53.194;6.132;2023-05-23T09:15:08;14.10;;;2.80;;
76566;SDS011;65428;53.194;6.132;2023-05-23T09:17:35;17.92;;;2.88;;
76566;SDS011;65428;53.194;6.132;2023-05-23T09:20:02;16.55;;;2.78;;
76566;SDS011;65428;53.194;6.132;2023-05-23T09:22:29;18.08;;;3.17;;
76566;SDS011;65428;53.194;6.132;2023-05-23T09:24:55;17.70;;;3.00;;
76566;SDS011;65428;53.194;6.132;2023-05-23T09:27:21;14.65;;;2.50;;
76566;SDS011;65428;53.194;6.132;2023-05-23T09:29:50;13.00;;;2.30;;
76566;SDS011;65428;53.194;6.132;2023-05-23T09:32:16;15.68;;;2.80;;
76566;SDS011;65428;53.194;6.132;2023-05-23T09:37:20;12.32;;;2.20;;
76566;SDS011;65428;53.194;6.132;2023-05-23T09:39:48;12.57;;;2.50;;
76566;SDS011;65428;53.194;6.132;2023-05-23T09:42:20;15.35;;;2.47;;
76566;SDS011;65428;53.194;6.132;2023-05-23T09:44:49;14.45;;;2.55;;
76566;SDS011;65428;53.194;6.132;2023-05-23T09:47:15;13.43;;;2.53;;
76566;SDS011;65428;53.194;6.132;2023-05-23T09:49:44;13.53;;;2.10;;
76566;SDS011;65428;53.194;6.132;2023-05-23T09:52:11;14.33;;;2.93;;
76566;SDS011;65428;53.194;6.132;2023-05-23T09:54:37;13.00;;;2.22;;
76566;SDS011;65428;53.194;6.132;2023-05-23T09:57:04;15.20;;;2.45;;
76566;SDS011;65428;53.194;6.132;2023-05-23T09:59:34;12.38;;;2.22;;
76566;SDS011;65428;53.194;6.132;2023-05-23T10:02:05;12.88;;;2.85;;
76566;SDS011;65428;53.194;6.132;2023-05-23T10:04:33;14.68;;;2.60;;
76566;SDS011;65428;53.194;6.132;2023-05-23T10:07:12;12.07;;;2.25;;
76566;SDS011;65428;53.194;6.132;2023-05-23T10:09:40;15.45;;;2.80;;
76566;SDS011;65428;53.194;6.132;2023-05-23T10:12:20;13.48;;;2.35;;
76566;SDS011;65428;53.194;6.132;2023-05-23T10:15:06;11.88;;;2.20;;
76566;SDS011;65428;53.194;6.132;2023-05-23T10:17:39;10.40;;;2.10;;
76566;SDS011;65428;53.194;6.132;2023-05-23T10:20:33;12.32;;;2.47;;
76566;SDS011;65428;53.194;6.132;2023-05-23T10:23:03;12.02;;;2.47;;
76566;SDS011;65428;53.194;6.132;2023-05-23T10:25:29;13.45;;;2.47;;
76566;SDS011;65428;53.194;6.132;2023-05-23T10:27:55;14.00;;;2.58;;
76566;SDS011;65428;53.194;6.132;2023-05-23T10:30:26;11.73;;;2.10;;
76566;SDS011;65428;53.194;6.132;2023-05-23T10:32:53;13.15;;;2.50;;
76566;SDS011;65428;53.194;6.132;2023-05-23T10:35:45;11.77;;;2.10;;
76566;SDS011;65428;53.194;6.132;2023-05-23T10:38:37;11.57;;;1.85;;
76566;SDS011;65428;53.194;6.132;2023-05-23T10:43:50;14.55;;;2.47;;
76566;SDS011;65428;53.194;6.132;2023-05-23T10:46:50;13.65;;;2.28;;
76566;SDS011;65428;53.194;6.132;2023-05-23T10:49:34;15.63;;;2.72;;
76566;SDS011;65428;53.194;6.132;2023-05-23T10:52:09;15.85;;;3.28;;
76566;SDS011;65428;53.194;6.132;2023-05-23T10:54:49;13.45;;;2.42;;
76566;SDS011;65428;53.194;6.132;2023-05-23T10:57:17;11.45;;;2.17;;
76566;SDS011;65428;53.194;6.132;2023-05-23T10:59:44;12.90;;;2.78;;
76566;SDS011;65428;53.194;6.132;2023-05-23T11:02:15;13.75;;;2.60;;
76566;SDS011;65428;53.194;6.132;2023-05-23T11:04:43;15.47;;;2.63;;
76566;SDS011;65428;53.194;6.132;2023-05-23T11:07:31;12.75;;;2.40;;
76566;SDS011;65428;53.194;6.132;2023-05-23T11:12:44;11.85;;;2.28;;
76566;SDS011;65428;53.194;6.132;2023-05-23T11:17:55;11.85;;;1.70;;
76566;SDS011;65428;53.194;6.132;2023-05-23T11:20:23;8.63;;;1.80;;
76566;SDS011;65428;53.194;6.132;2023-05-23T11:25:40;10.93;;;1.80;;
76566;SDS011;65428;53.194;6.132;2023-05-23T11:28:11;10.60;;;2.30;;
76566;SDS011;65428;53.194;6.132;2023-05-23T11:30:37;11.33;;;2.10;;
76566;SDS011;65428;53.194;6.132;2023-05-23T11:33:07;9.93;;;1.95;;
76566;SDS011;65428;53.194;6.132;2023-05-23T11:35:37;9.90;;;1.77;;
76566;SDS011;65428;53.194;6.132;2023-05-23T11:38:04;11.30;;;1.60;;
76566;SDS011;65428;53.194;6.132;2023-05-23T11:40:31;9.63;;;1.67;;
76566;SDS011;65428;53.194;6.132;2023-05-23T11:42:57;11.18;;;1.80;;
76566;SDS011;65428;53.194;6.132;2023-05-23T11:45:24;8.95;;;1.70;;
76566;SDS011;65428;53.194;6.132;2023-05-23T11:47:51;10.48;;;2.10;;
76566;SDS011;65428;53.194;6.132;2023-05-23T11:50:17;9.20;;;1.60;;
76566;SDS011;65428;53.194;6.132;2023-05-23T11:52:44;10.90;;;1.70;;
76566;SDS011;65428;53.194;6.132;2023-05-23T11:55:15;11.60;;;2.17;;
76566;SDS011;65428;53.194;6.132;2023-05-23T11:57:42;12.40;;;2.25;;
76566;SDS011;65428;53.194;6.132;2023-05-23T12:00:08;10.80;;;2.08;;
76566;SDS011;65428;53.194;6.132;2023-05-23T12:02:41;10.32;;;2.00;;
76566;SDS011;65428;53.194;6.132;2023-05-23T12:05:08;12.77;;;2.03;;
76566;SDS011;65428;53.194;6.132;2023-05-23T12:07:38;13.83;;;2.60;;
76566;SDS011;65428;53.194;6.132;2023-05-23T12:10:09;11.93;;;2.40;;
76566;SDS011;65428;53.194;6.132;2023-05-23T12:12:35;10.68;;;1.60;;
76566;SDS011;65428;53.194;6.132;2023-05-23T12:15:01;11.35;;;1.85;;
76566;SDS011;65428;53.194;6.132;2023-05-23T12:17:27;12.07;;;2.30;;
76566;SDS011;65428;53.194;6.132;2023-05-23T12:19:53;13.07;;;1.80;;
76566;SDS011;65428;53.194;6.132;2023-05-23T12:22:22;12.40;;;1.60;;
76566;SDS011;65428;53.194;6.132;2023-05-23T12:24:54;10.38;;;1.55;;
76566;SDS011;65428;53.194;6.132;2023-05-23T12:27:33;8.95;;;1.75;;
76566;SDS011;65428;53.194;6.132;2023-05-23T12:32:33;11.20;;;2.55;;
76566;SDS011;65428;53.194;6.132;2023-05-23T12:35:03;14.55;;;2.10;;
76566;SDS011;65428;53.194;6.132;2023-05-23T12:37:29;13.18;;;2.00;;
76566;SDS011;65428;53.194;6.132;2023-05-23T12:39:55;11.40;;;1.90;;
76566;SDS011;65428;53.194;6.132;2023-05-23T12:42:21;12.37;;;2.10;;
76566;SDS011;65428;53.194;6.132;2023-05-23T12:44:49;8.80;;;1.60;;
76566;SDS011;65428;53.194;6.132;2023-05-23T12:47:15;8.47;;;1.40;;
76566;SDS011;65428;53.194;6.132;2023-05-23T12:49:41;11.48;;;1.70;;
76566;SDS011;65428;53.194;6.132;2023-05-23T12:52:08;9.82;;;1.65;;
76566;SDS011;65428;53.194;6.132;2023-05-23T12:54:34;8.65;;;1.50;;
76566;SDS011;65428;53.194;6.132;2023-05-23T12:57:00;11.77;;;1.77;;
76566;SDS011;65428;53.194;6.132;2023-05-23T12:59:26;9.35;;;1.55;;
76566;SDS011;65428;53.194;6.132;2023-05-23T13:01:51;8.10;;;1.20;;
76566;SDS011;65428;53.194;6.132;2023-05-23T13:04:17;8.32;;;1.40;;
76566;SDS011;65428;53.194;6.132;2023-05-23T13:06:43;6.97;;;1.13;;
76566;SDS011;65428;53.194;6.132;2023-05-23T13:09:09;10.47;;;1.30;;
76566;SDS011;65428;53.194;6.132;2023-05-23T13:11:35;10.50;;;1.83;;
76566;SDS011;65428;53.194;6.132;2023-05-23T13:14:01;10.30;;;2.00;;
76566;SDS011;65428;53.194;6.132;2023-05-23T13:16:27;14.57;;;2.38;;
76566;SDS011;65428;53.194;6.132;2023-05-23T13:18:53;14.10;;;2.20;;
76566;SDS011;65428;53.194;6.132;2023-05-23T13:21:18;14.70;;;2.40;;
76566;SDS011;65428;53.194;6.132;2023-05-23T13:23:44;13.03;;;2.10;;
76566;SDS011;65428;53.194;6.132;2023-05-23T13:26:10;10.90;;;1.80;;
76566;SDS011;65428;53.194;6.132;2023-05-23T13:28:36;9.25;;;1.40;;
76566;SDS011;65428;53.194;6.132;2023-05-23T13:31:01;9.70;;;1.60;;
76566;SDS011;65428;53.194;6.132;2023-05-23T13:33:27;9.85;;;1.75;;
76566;SDS011;65428;53.194;6.132;2023-05-23T13:35:53;9.63;;;2.13;;
76566;SDS011;65428;53.194;6.132;2023-05-23T13:38:19;10.05;;;1.92;;
76566;SDS011;65428;53.194;6.132;2023-05-23T13:40:45;9.35;;;1.58;;
76566;SDS011;65428;53.194;6.132;2023-05-23T13:43:11;10.55;;;1.98;;
76566;SDS011;65428;53.194;6.132;2023-05-23T13:45:36;8.93;;;1.73;;
76566;SDS011;65428;53.194;6.132;2023-05-23T13:48:02;8.07;;;1.50;;
76566;SDS011;65428;53.194;6.132;2023-05-23T13:50:28;7.43;;;1.40;;
76566;SDS011;65428;53.194;6.132;2023-05-23T13:52:53;9.27;;;1.30;;
76566;SDS011;65428;53.194;6.132;2023-05-23T13:55:20;8.67;;;1.10;;
76566;SDS011;65428;53.194;6.132;2023-05-23T13:57:45;7.70;;;1.20;;
76566;SDS011;65428;53.194;6.132;2023-05-23T14:00:11;9.43;;;1.40;;
76566;SDS011;65428;53.194;6.132;2023-05-23T14:02:38;9.75;;;1.70;;
76566;SDS011;65428;53.194;6.132;2023-05-23T14:05:03;9.90;;;1.50;;
76566;SDS011;65428;53.194;6.132;2023-05-23T14:07:31;9.93;;;1.50;;
76566;SDS011;65428;53.194;6.132;2023-05-23T14:09:57;9.40;;;1.15;;
76566;SDS011;65428;53.194;6.132;2023-05-23T14:12:23;11.02;;;1.63;;
76566;SDS011;65428;53.194;6.132;2023-05-23T14:14:50;9.98;;;1.85;;
76566;SDS011;65428;53.194;6.132;2023-05-23T14:17:16;10.27;;;1.58;;
76566;SDS011;65428;53.194;6.132;2023-05-23T14:19:42;10.60;;;1.88;;
76566;SDS011;65428;53.194;6.132;2023-05-23T14:22:07;11.93;;;2.33;;
76566;SDS011;65428;53.194;6.132;2023-05-23T14:24:33;10.10;;;1.60;;
76566;SDS011;65428;53.194;6.132;2023-05-23T14:26:59;10.13;;;1.50;;
76566;SDS011;65428;53.194;6.132;2023-05-23T14:29:24;13.38;;;1.90;;
76566;SDS011;65428;53.194;6.132;2023-05-23T14:31:50;8.77;;;1.57;;
76566;SDS011;65428;53.194;6.132;2023-05-23T14:34:16;8.27;;;1.27;;
76566;SDS011;65428;53.194;6.132;2023-05-23T14:36:41;10.43;;;1.50;;
76566;SDS011;65428;53.194;6.132;2023-05-23T14:39:07;9.13;;;1.30;;
76566;SDS011;65428;53.194;6.132;2023-05-23T14:41:33;11.73;;;1.80;;
76566;SDS011;65428;53.194;6.132;2023-05-23T14:43:59;11.30;;;1.60;;
76566;SDS011;65428;53.194;6.132;2023-05-23T14:46:24;10.87;;;1.63;;
76566;SDS011;65428;53.194;6.132;2023-05-23T14:48:50;10.65;;;1.63;;
76566;SDS011;65428;53.194;6.132;2023-05-23T14:51:16;11.10;;;1.47;;
76566;SDS011;65428;53.194;6.132;2023-05-23T14:53:42;10.05;;;1.63;;
76566;SDS011;65428;53.194;6.132;2023-05-23T14:56:07;8.43;;;1.20;;